Time;durP1;ratioP1;P1;durP2;ratioP2;P2;SDS_P1;SDS_P2;PMS_P1;PMS_P2;Temp;Humidity;BMP_temperature;BMP_pressure;BME280_temperature;BME280_humidity;BME280_pressure;Samples;Min_cycle;Max_cycle;Signal;HPM_P1;HPM_P2
2022/08/20 00:00:12;;;;;;;0.15;0.00;;;19.60;99.90;;;;;;5094314;28;20046;-80
2022/08/20 00:02:44;;;;;;;0.00;0.00;;;19.60;99.90;;;;;;5079698;28;20080;-80
2022/08/20 00:05:10;;;;;;;0.00;0.00;;;19.60;99.90;;;;;;5096156;28;20040;-80
2022/08/20 00:07:36;;;;;;;0.10;0.10;;;19.60;99.90;;;;;;5078718;28;20059;-80
2022/08/20 00:10:04;;;;;;;0.00;0.00;;;19.60;99.90;;;;;;5079353;28;20391;-80
2022/08/20 00:12:30;;;;;;;0.00;0.00;;;19.50;99.90;;;;;;5078959;28;20040;-80
2022/08/20 00:14:56;;;;;;;0.00;0.00;;;19.50;99.90;;;;;;5095864;28;20044;-80
2022/08/20 00:17:21;;;;;;;0.00;0.00;;;19.40;99.90;;;;;;5078933;28;20052;-80
2022/08/20 00:19:47;;;;;;;0.00;0.00;;;19.40;99.90;;;;;;5095817;28;20043;-80
2022/08/20 00:22:12;;;;;;;0.00;0.00;;;19.50;99.90;;;;;;5078248;28;20436;-80
2022/08/20 00:24:38;;;;;;;0.00;0.00;;;19.40;99.90;;;;;;5096060;28;20043;-80
2022/08/20 00:27:04;;;;;;;0.00;0.00;;;19.40;99.90;;;;;;5095788;28;20063;-80
2022/08/20 00:29:29;;;;;;;0.10;0.10;;;19.40;99.90;;;;;;5078652;28;20040;-80
2022/08/20 00:31:55;;;;;;;0.00;0.00;;;19.40;99.90;;;;;;5078575;28;20063;-80
2022/08/20 00:34:21;;;;;;;0.00;0.00;;;19.40;99.90;;;;;;5078264;28;20483;-80
2022/08/20 00:36:46;;;;;;;0.00;0.00;;;19.30;99.90;;;;;;5078471;28;20062;-80
2022/08/20 00:39:12;;;;;;;0.00;0.00;;;19.30;99.90;;;;;;5095706;28;20123;-80
2022/08/20 00:41:38;;;;;;;0.00;0.00;;;19.30;99.90;;;;;;5078339;28;20054;-80
2022/08/20 00:44:10;;;;;;;0.00;0.00;;;19.30;99.90;;;;;;5095305;28;20480;-80
2022/08/20 00:46:37;;;;;;;0.00;0.00;;;19.30;99.90;;;;;;5078649;28;20050;-80
2022/08/20 00:49:07;;;;;;;0.00;0.00;;;19.30;99.90;;;;;;5078203;28;20100;-80
2022/08/20 00:51:40;;;;;;;0.00;0.00;;;19.30;99.90;;;;;;5095210;28;20048;-80
2022/08/20 00:54:26;;;;;;;0.10;0.10;;;19.30;99.90;;;;;;5077531;28;20507;-80
2022/08/20 00:56:57;;;;;;;0.00;0.00;;;19.20;99.90;;;;;;5078002;28;20046;-80
2022/08/20 00:59:28;;;;;;;0.00;0.00;;;19.20;99.90;;;;;;5077472;28;20066;-80
2022/08/20 01:01:56;;;;;;;0.00;0.00;;;19.20;99.90;;;;;;5077927;28;20089;-80
2022/08/20 01:04:24;;;;;;;0.00;0.00;;;19.20;99.90;;;;;;5078104;28;20472;-80
2022/08/20 01:06:49;;;;;;;0.00;0.00;;;19.20;99.90;;;;;;5077494;28;20143;-80
2022/08/20 01:09:15;;;;;;;0.00;0.00;;;19.20;99.90;;;;;;5094872;28;20076;-80
2022/08/20 01:11:41;;;;;;;0.03;0.03;;;19.20;99.90;;;;;;5095002;28;20484;-80
2022/08/20 01:16:51;;;;;;;0.00;0.00;;;19.10;99.90;;;;;;5094718;28;20048;-80
2022/08/20 01:19:23;;;;;;;0.00;0.00;;;19.10;99.90;;;;;;5077782;28;20062;-80
2022/08/20 01:21:50;;;;;;;0.10;0.10;;;19.10;99.90;;;;;;5077696;28;20479;-80
2022/08/20 01:24:21;;;;;;;0.35;0.08;;;19.10;99.90;;;;;;5095096;28;20479;-80
2022/08/20 01:26:48;;;;;;;2.40;0.40;;;19.00;99.90;;;;;;5077762;28;20092;-80
2022/08/20 01:29:21;;;;;;;0.00;0.00;;;19.00;99.90;;;;;;5077648;28;20123;-80
2022/08/20 01:31:47;;;;;;;0.00;0.00;;;19.00;99.90;;;;;;5077516;28;20048;-80
2022/08/20 01:34:16;;;;;;;0.38;0.10;;;19.00;99.90;;;;;;5077819;28;20117;-80
2022/08/20 01:36:48;;;;;;;0.00;0.00;;;19.00;99.90;;;;;;5077683;28;20051;-80
2022/08/20 01:39:19;;;;;;;0.00;0.00;;;19.00;99.90;;;;;;5077075;28;20060;-80
2022/08/20 01:42:07;;;;;;;0.00;0.00;;;19.00;99.90;;;;;;5094300;28;20391;-80
2022/08/20 01:44:35;;;;;;;0.00;0.00;;;18.90;99.90;;;;;;5077356;28;20157;-80
2022/08/20 01:47:20;;;;;;;0.00;0.00;;;18.90;99.90;;;;;;5077232;28;20387;-80
2022/08/20 01:49:49;;;;;;;;;;;18.90;99.90;;;;;;5077449;28;20047;-80
2022/08/20 01:52:25;;;;;;;0.00;0.00;;;18.80;99.90;;;;;;5077172;28;19927;-80
2022/08/20 01:54:51;;;;;;;0.03;0.03;;;18.80;99.90;;;;;;5076617;28;20082;-80
2022/08/20 01:57:19;;;;;;;0.05;0.05;;;18.80;99.90;;;;;;5094128;28;20051;-80
2022/08/20 01:59:46;;;;;;;0.00;0.00;;;18.80;99.90;;;;;;5077451;28;20044;-80
2022/08/20 02:02:12;;;;;;;0.00;0.00;;;18.80;99.90;;;;;;5076692;28;20135;-80
2022/08/20 02:04:39;;;;;;;0.00;0.00;;;18.80;99.90;;;;;;5076974;28;20514;-80
2022/08/20 02:07:07;;;;;;;0.00;0.00;;;18.80;99.90;;;;;;5093747;28;20051;-80
2022/08/20 02:09:38;;;;;;;0.00;0.00;;;18.80;99.90;;;;;;5075817;28;20048;-80
2022/08/20 02:12:06;;;;;;;0.17;0.00;;;18.80;99.90;;;;;;5093581;28;20130;-80
2022/08/20 02:14:32;;;;;;;0.00;0.00;;;18.70;99.90;;;;;;5093713;28;20130;-80
2022/08/20 02:16:59;;;;;;;0.00;0.00;;;18.70;99.90;;;;;;5076488;28;20109;-80
2022/08/20 02:19:33;;;;;;;0.00;0.00;;;18.60;99.90;;;;;;5076748;28;20131;-80
2022/08/20 02:22:03;;;;;;;0.00;0.00;;;18.60;99.90;;;;;;5076149;28;20407;-80
2022/08/20 02:24:28;;;;;;;0.10;0.00;;;18.70;99.90;;;;;;5093355;28;20032;-80
2022/08/20 02:26:54;;;;;;;0.00;0.00;;;18.70;99.90;;;;;;5093393;28;20094;-80
2022/08/20 02:29:20;;;;;;;0.00;0.00;;;18.60;99.90;;;;;;5093326;28;20043;-80
2022/08/20 02:31:46;;;;;;;0.00;0.00;;;18.60;99.90;;;;;;5076378;28;20059;-80
2022/08/20 02:34:14;;;;;;;0.00;0.00;;;18.60;99.90;;;;;;5092888;28;20541;-80
2022/08/20 02:36:42;;;;;;;0.00;0.00;;;18.60;99.90;;;;;;5076329;28;20044;-80
2022/08/20 02:39:10;;;;;;;0.00;0.00;;;18.60;99.90;;;;;;5076257;28;20048;-80
2022/08/20 02:41:37;;;;;;;0.00;0.00;;;18.50;99.90;;;;;;5092930;28;20051;-80
2022/08/20 02:44:05;;;;;;;0.00;0.00;;;18.50;99.90;;;;;;5075532;28;20113;-79
2022/08/20 02:46:31;;;;;;;0.00;0.00;;;18.50;99.90;;;;;;5076014;28;20094;-80
2022/08/20 02:48:57;;;;;;;0.00;0.00;;;18.50;99.90;;;;;;5092683;28;20396;-80
2022/08/20 02:51:23;;;;;;;0.00;0.00;;;18.40;99.90;;;;;;5093210;28;20097;-80
2022/08/20 02:53:49;;;;;;;0.00;0.00;;;18.40;99.90;;;;;;5092682;28;20087;-80
2022/08/20 02:56:15;;;;;;;0.00;0.00;;;18.40;99.90;;;;;;5075928;28;20051;-80
2022/08/20 02:58:41;;;;;;;0.00;0.00;;;18.40;99.90;;;;;;5092964;28;20052;-80
2022/08/20 03:01:11;;;;;;;0.00;0.00;;;18.40;99.90;;;;;;5092683;28;20503;-80
2022/08/20 03:03:38;;;;;;;0.00;0.00;;;18.40;99.90;;;;;;5092822;28;20047;-80
2022/08/20 03:06:06;;;;;;;0.05;0.00;;;18.40;99.90;;;;;;5092794;28;20043;-80
2022/08/20 03:08:32;;;;;;;0.00;0.00;;;18.30;99.90;;;;;;5075784;28;20060;-80
2022/08/20 03:10:58;;;;;;;0.00;0.00;;;18.30;99.90;;;;;;5092686;28;20090;-80
2022/08/20 03:13:24;;;;;;;0.10;0.10;;;18.20;99.90;;;;;;5092712;28;20052;-80
2022/08/20 03:15:57;;;;;;;0.05;0.05;;;18.20;99.90;;;;;;5075927;28;20040;-80
2022/08/20 03:18:26;;;;;;;0.05;0.00;;;18.10;99.90;;;;;;5092415;28;20055;-80
2022/08/20 03:20:52;;;;;;;0.00;0.00;;;18.00;99.90;;;;;;5075628;28;20098;-79
2022/08/20 03:23:20;;;;;;;0.00;0.00;;;18.00;99.90;;;;;;5096972;28;20040;-80
2022/08/20 03:25:46;;;;;;;0.00;0.00;;;18.00;99.90;;;;;;5096827;28;20079;-80
2022/08/20 03:28:13;;;;;;;0.10;0.00;;;17.90;99.90;;;;;;5096723;28;20054;-80
2022/08/20 03:30:40;;;;;;;0.10;0.10;;;18.00;99.90;;;;;;5079530;28;20059;-80
2022/08/20 03:33:07;;;;;;;0.00;0.00;;;17.90;99.90;;;;;;5096686;28;20087;-80
2022/08/20 03:35:36;;;;;;;0.13;0.00;;;17.90;99.90;;;;;;5079766;28;20048;-80
2022/08/20 03:38:05;;;;;;;0.00;0.00;;;17.90;99.90;;;;;;5079793;28;20051;-80
2022/08/20 03:40:33;;;;;;;0.00;0.00;;;17.90;99.90;;;;;;5079390;28;20059;-80
2022/08/20 03:42:59;;;;;;;0.00;0.00;;;18.00;99.90;;;;;;5096464;28;20075;-80
2022/08/20 03:45:26;;;;;;;0.00;0.00;;;18.00;99.90;;;;;;5096136;28;20080;-80
2022/08/20 03:47:53;;;;;;;0.00;0.00;;;17.90;99.90;;;;;;5079575;28;20044;-80
2022/08/20 03:50:22;;;;;;;0.00;0.00;;;17.90;99.90;;;;;;5079415;28;20055;-80
2022/08/20 03:52:49;;;;;;;0.00;0.00;;;17.80;99.90;;;;;;5079690;28;20044;-80
2022/08/20 03:55:15;;;;;;;0.10;0.00;;;17.80;99.90;;;;;;5094258;28;20312;-80
2022/08/20 03:57:50;;;;;;;0.00;0.00;;;17.80;99.90;;;;;;5076715;28;20056;-81
2022/08/20 04:00:27;;;;;;;0.00;0.00;;;17.70;99.90;;;;;;5078820;28;20055;-80
2022/08/20 04:02:54;;;;;;;0.00;0.00;;;17.70;99.90;;;;;;5096250;28;20043;-80
2022/08/20 04:05:19;;;;;;;0.00;0.00;;;17.70;99.90;;;;;;5095405;28;20048;-80
2022/08/20 04:07:45;;;;;;;0.00;0.00;;;17.70;99.90;;;;;;5079010;28;20097;-80
2022/08/20 04:10:11;;;;;;;0.00;0.00;;;17.70;99.90;;;;;;5095608;28;20036;-80
2022/08/20 04:12:39;;;;;;;0.00;0.00;;;17.60;99.90;;;;;;5078895;28;20411;-80
2022/08/20 04:15:07;;;;;;;1.42;0.32;;;17.60;99.90;;;;;;5079444;28;20456;-80
2022/08/20 04:17:33;;;;;;;0.00;0.00;;;17.60;99.90;;;;;;5095966;28;20134;-80
2022/08/20 04:20:03;;;;;;;0.00;0.00;;;17.60;99.90;;;;;;5095782;28;20466;-80
2022/08/20 04:22:29;;;;;;;0.00;0.00;;;17.60;99.90;;;;;;5077911;28;20172;-80
2022/08/20 04:24:54;;;;;;;0.00;0.00;;;17.50;99.90;;;;;;5095598;28;20044;-80
2022/08/20 04:27:20;;;;;;;0.00;0.00;;;17.60;99.90;;;;;;5095818;28;20055;-80
2022/08/20 04:29:45;;;;;;;0.00;0.00;;;17.60;99.90;;;;;;5078860;28;20040;-80
2022/08/20 04:32:11;;;;;;;0.00;0.00;;;17.60;99.90;;;;;;5078240;28;20063;-80
2022/08/20 04:34:38;;;;;;;0.00;0.00;;;17.50;99.90;;;;;;5077567;28;20059;-80
2022/08/20 04:37:04;;;;;;;0.10;0.10;;;17.60;99.90;;;;;;5095377;28;20126;-80
2022/08/20 04:39:30;;;;;;;0.00;0.00;;;17.50;99.90;;;;;;5095335;28;20453;-80
2022/08/20 04:41:55;;;;;;;0.00;0.00;;;17.60;99.90;;;;;;5095133;28;20132;-80
2022/08/20 04:44:21;;;;;;;0.00;0.00;;;17.50;99.90;;;;;;5095286;28;20048;-80
2022/08/20 04:46:47;;;;;;;0.00;0.00;;;17.60;99.90;;;;;;5095362;28;20048;-80
2022/08/20 04:49:13;;;;;;;0.00;0.00;;;17.60;99.90;;;;;;5095418;28;20463;-80
2022/08/20 04:51:38;;;;;;;0.00;0.00;;;17.60;99.90;;;;;;5095154;28;20040;-80
2022/08/20 04:54:04;;;;;;;0.00;0.00;;;17.60;99.90;;;;;;5077822;28;20109;-80
2022/08/20 04:56:37;;;;;;;0.00;0.00;;;17.60;99.90;;;;;;5078288;28;20051;-80
2022/08/20 04:59:04;;;;;;;0.00;0.00;;;17.60;99.90;;;;;;5078271;28;20082;-80
2022/08/20 05:01:30;;;;;;;0.00;0.00;;;17.50;99.90;;;;;;5094802;28;20039;-80
2022/08/20 05:03:57;;;;;;;0.20;0.10;;;17.50;99.90;;;;;;5094924;28;20052;-80
2022/08/20 05:06:27;;;;;;;1.55;0.47;;;17.50;99.90;;;;;;5077895;28;20083;-80
2022/08/20 05:08:54;;;;;;;0.00;0.00;;;17.40;99.90;;;;;;5078275;28;20051;-80
2022/08/20 05:11:21;;;;;;;0.00;0.00;;;17.50;99.90;;;;;;5077920;28;20040;-80
2022/08/20 05:13:47;;;;;;;0.00;0.00;;;17.50;99.90;;;;;;5077990;28;20059;-80
2022/08/20 05:16:16;;;;;;;0.22;0.22;;;17.40;99.90;;;;;;5094762;28;20052;-80
2022/08/20 05:18:43;;;;;;;0.00;0.00;;;17.50;99.90;;;;;;5077822;28;20044;-80
2022/08/20 05:21:09;;;;;;;0.00;0.00;;;17.40;99.90;;;;;;5094422;28;20195;-80
2022/08/20 05:23:40;;;;;;;0.00;0.00;;;17.40;99.90;;;;;;5094581;28;20516;-80
2022/08/20 05:26:07;;;;;;;0.00;0.00;;;17.40;99.90;;;;;;5077625;28;20044;-80
2022/08/20 05:28:35;;;;;;;0.00;0.00;;;17.40;99.90;;;;;;5094775;28;20052;-80
2022/08/20 05:31:01;;;;;;;0.00;0.00;;;17.40;99.90;;;;;;5077593;28;20047;-80
2022/08/20 05:33:28;;;;;;;0.00;0.00;;;17.40;99.90;;;;;;5077448;28;20052;-80
2022/08/20 05:35:56;;;;;;;0.00;0.00;;;17.40;99.90;;;;;;5077059;28;20075;-80
2022/08/20 05:38:27;;;;;;;0.00;0.00;;;17.40;99.90;;;;;;5077938;28;20557;-80
2022/08/20 05:40:52;;;;;;;0.00;0.00;;;17.40;99.90;;;;;;5077480;28;20093;-80
2022/08/20 05:43:19;;;;;;;0.00;0.00;;;17.40;99.90;;;;;;5077277;28;20048;-80
2022/08/20 05:45:46;;;;;;;0.00;0.00;;;17.40;99.90;;;;;;5093820;28;20127;-80
2022/08/20 05:48:14;;;;;;;1.63;0.05;;;17.40;99.90;;;;;;5077086;28;20059;-80
2022/08/20 05:50:42;;;;;;;0.17;0.10;;;17.30;99.90;;;;;;5077198;28;20139;-80
2022/08/20 05:53:08;;;;;;;0.00;0.00;;;17.30;99.90;;;;;;5076430;28;20048;-80
2022/08/20 05:55:37;;;;;;;0.30;0.00;;;17.20;99.90;;;;;;5093240;28;20044;-80
2022/08/20 05:58:06;;;;;;;0.10;0.00;;;17.20;99.90;;;;;;5093781;28;20048;-80
2022/08/20 06:00:32;;;;;;;0.00;0.00;;;17.20;99.90;;;;;;5076839;28;20048;-80
2022/08/20 06:05:44;;;;;;;0.00;0.00;;;17.30;99.90;;;;;;5094254;28;20047;-80
2022/08/20 06:08:10;;;;;;;0.00;0.00;;;17.30;99.90;;;;;;5076752;28;20096;-80
2022/08/20 06:10:37;;;;;;;0.00;0.00;;;17.30;99.90;;;;;;5093671;28;20131;-80
2022/08/20 06:13:03;;;;;;;0.52;0.43;;;17.40;99.90;;;;;;5093521;28;20052;-80
2022/08/20 06:15:30;;;;;;;0.20;0.13;;;17.50;99.90;;;;;;5076862;28;20048;-80
2022/08/20 06:17:56;;;;;;;0.00;0.00;;;17.60;99.90;;;;;;5076778;28;20130;-80
2022/08/20 06:20:22;;;;;;;0.00;0.00;;;17.70;99.90;;;;;;5093364;28;20520;-80
2022/08/20 06:22:48;;;;;;;0.00;0.00;;;17.80;99.90;;;;;;5077128;28;20051;-80
2022/08/20 06:25:13;;;;;;;0.00;0.00;;;18.00;99.90;;;;;;5076471;28;20403;-80
2022/08/20 06:27:41;;;;;;;0.00;0.00;;;18.10;99.90;;;;;;5093236;28;20126;-80
2022/08/20 06:30:11;;;;;;;0.00;0.00;;;18.30;99.90;;;;;;5077206;28;20052;-80
2022/08/20 06:32:37;;;;;;;0.35;0.10;;;18.30;99.90;;;;;;5076564;28;20093;-80
2022/08/20 06:35:05;;;;;;;0.00;0.00;;;18.30;99.90;;;;;;5093419;28;20044;-80
2022/08/20 06:37:35;;;;;;;0.00;0.00;;;18.20;99.90;;;;;;5093054;28;20457;-80
2022/08/20 06:40:27;;;;;;;0.00;0.00;;;18.20;99.90;;;;;;5076302;28;20044;-80
2022/08/20 06:42:54;;;;;;;0.00;0.00;;;18.20;99.90;;;;;;5090212;28;20048;-80
2022/08/20 06:45:23;;;;;;;0.00;0.00;;;18.20;99.90;;;;;;5076076;28;20044;-80
2022/08/20 06:47:49;;;;;;;0.00;0.00;;;18.20;99.90;;;;;;5076336;28;20086;-80
2022/08/20 06:50:19;;;;;;;0.00;0.00;;;18.20;99.90;;;;;;5093076;28;20051;-80
2022/08/20 06:52:46;;;;;;;0.03;0.03;;;18.20;99.90;;;;;;5076009;28;20077;-80
2022/08/20 06:55:13;;;;;;;0.00;0.00;;;18.20;99.90;;;;;;5075856;28;20052;-80
2022/08/20 06:57:39;;;;;;;0.00;0.00;;;18.30;99.90;;;;;;5075182;28;20048;-80
2022/08/20 07:00:09;;;;;;;0.00;0.00;;;18.40;99.90;;;;;;5076203;28;20044;-80
2022/08/20 07:02:36;;;;;;;0.00;0.00;;;18.60;99.90;;;;;;5075675;28;20545;-80
2022/08/20 07:05:04;;;;;;;0.52;0.28;;;18.80;99.90;;;;;;5076057;28;20044;-80
2022/08/20 07:07:29;;;;;;;0.15;0.05;;;19.60;99.90;;;;;;5075644;28;20048;-80
2022/08/20 07:10:00;;;;;;;0.00;0.00;;;20.40;99.90;;;;;;5075942;28;20058;-80
2022/08/20 07:12:25;;;;;;;0.10;0.00;;;20.70;99.90;;;;;;5075762;28;20044;-80
2022/08/20 07:14:51;;;;;;;0.00;0.00;;;21.10;99.90;;;;;;5075974;28;20135;-80
2022/08/20 07:17:16;;;;;;;0.00;0.00;;;21.50;99.90;;;;;;5092772;28;20395;-80
2022/08/20 07:19:42;;;;;;;0.00;0.00;;;21.50;99.90;;;;;;5092584;28;20056;-80
2022/08/20 07:22:08;;;;;;;0.00;0.00;;;21.40;99.90;;;;;;5092543;28;20040;-80
2022/08/20 07:24:33;;;;;;;0.00;0.00;;;21.10;99.90;;;;;;5093204;28;20040;-80
2022/08/20 07:26:59;;;;;;;0.00;0.00;;;20.80;99.90;;;;;;5075744;28;20040;-80
2022/08/20 07:32:33;;;;;;;0.00;0.00;;;20.50;99.90;;;;;;5092408;28;20483;-80
2022/08/20 07:34:55;;;;;;;0.00;0.00;;;20.50;99.90;;;;;;5092794;28;20048;-81
2022/08/20 07:37:22;;;;;;;0.35;0.10;;;20.50;99.90;;;;;;5092550;28;20059;-80
2022/08/20 07:39:48;;;;;;;0.00;0.00;;;20.60;99.90;;;;;;5092540;28;20127;-80
2022/08/20 07:42:14;;;;;;;0.00;0.00;;;20.90;99.90;;;;;;5075374;28;20456;-80
2022/08/20 07:44:40;;;;;;;14.05;0.90;;;21.00;99.90;;;;;;5075705;28;20087;-81
2022/08/20 07:47:05;;;;;;;0.00;0.00;;;21.00;99.90;;;;;;5092309;28;20042;-81
2022/08/20 07:49:36;;;;;;;0.00;0.00;;;20.90;99.90;;;;;;5075790;28;20053;-80
2022/08/20 07:52:03;;;;;;;0.00;0.00;;;20.80;99.90;;;;;;5075766;28;20071;-81
2022/08/20 07:54:29;;;;;;;0.00;0.00;;;20.70;99.90;;;;;;5075677;28;20066;-81
2022/08/20 07:56:55;;;;;;;0.20;0.03;;;20.60;99.90;;;;;;5075688;28;20130;-81
2022/08/20 07:59:21;;;;;;;0.00;0.00;;;20.50;99.90;;;;;;5074728;28;20048;-81
2022/08/20 08:01:46;;;;;;;1.20;0.28;;;20.40;99.90;;;;;;5075640;28;20392;-80
2022/08/20 08:04:12;;;;;;;0.10;0.10;;;20.30;99.90;;;;;;5093016;28;20047;-80
2022/08/20 08:06:39;;;;;;;0.00;0.00;;;20.20;99.90;;;;;;5092623;28;20052;-81
2022/08/20 08:09:08;;;;;;;0.00;0.00;;;20.20;99.90;;;;;;5078926;28;20059;-81
2022/08/20 08:11:38;;;;;;;0.00;0.00;;;20.20;99.90;;;;;;5079661;28;20044;-81
2022/08/20 08:14:06;;;;;;;0.00;0.00;;;20.20;99.90;;;;;;5096265;28;20400;-81
2022/08/20 08:16:33;;;;;;;0.00;0.00;;;20.30;99.90;;;;;;5079940;28;20051;-81
2022/08/20 08:19:00;;;;;;;0.30;0.25;;;20.30;99.90;;;;;;5096411;28;20044;-81
2022/08/20 08:21:28;;;;;;;0.55;0.10;;;20.30;99.90;;;;;;5078884;28;20087;-81
2022/08/20 08:23:54;;;;;;;0.00;0.00;;;20.30;99.90;;;;;;5096042;28;20051;-81
2022/08/20 08:26:21;;;;;;;0.00;0.00;;;20.30;99.90;;;;;;5096109;28;20126;-81
2022/08/20 08:28:46;;;;;;;0.13;0.10;;;20.30;99.90;;;;;;5079413;28;20048;-81
2022/08/20 08:31:12;;;;;;;0.00;0.00;;;20.30;99.90;;;;;;5079156;28;20051;-81
2022/08/20 08:33:39;;;;;;;2.80;0.40;;;20.30;99.90;;;;;;5095461;28;20044;-81
2022/08/20 08:36:09;;;;;;;0.00;0.00;;;20.30;99.90;;;;;;5078729;28;20480;-81
2022/08/20 08:38:37;;;;;;;0.00;0.00;;;20.30;99.90;;;;;;5078886;28;20052;-81
2022/08/20 08:41:14;;;;;;;0.00;0.00;;;20.50;99.90;;;;;;5095469;28;20040;-82
2022/08/20 08:43:41;;;;;;;0.10;0.00;;;20.40;99.90;;;;;;5096292;28;20044;-81
2022/08/20 08:46:10;;;;;;;0.00;0.00;;;20.40;99.90;;;;;;5078125;28;20495;-81
2022/08/20 08:48:46;;;;;;;0.00;0.00;;;20.40;99.90;;;;;;5095380;28;20083;-81
2022/08/20 08:51:18;;;;;;;0.00;0.00;;;20.50;99.90;;;;;;5095212;28;20140;-81
2022/08/20 08:53:53;;;;;;;0.00;0.00;;;20.60;99.90;;;;;;5096157;28;20048;-81
2022/08/20 08:56:25;;;;;;;0.00;0.00;;;20.70;99.90;;;;;;5094911;28;20489;-81
2022/08/20 08:58:54;;;;;;;0.00;0.00;;;20.80;99.90;;;;;;5078433;28;20048;-81
2022/08/20 09:01:22;;;;;;;0.00;0.00;;;20.90;99.90;;;;;;5094993;28;20040;-81
2022/08/20 09:03:50;;;;;;;0.00;0.00;;;21.00;99.90;;;;;;5078311;28;20059;-81
2022/08/20 09:06:21;;;;;;;0.00;0.00;;;21.00;99.90;;;;;;5095079;28;20072;-81
2022/08/20 09:08:54;;;;;;;0.00;0.00;;;21.10;99.90;;;;;;5078444;28;20391;-81
2022/08/20 09:11:22;;;;;;;0.00;0.00;;;21.20;99.90;;;;;;5095035;28;20135;-81
2022/08/20 09:13:48;;;;;;;0.00;0.00;;;21.30;99.90;;;;;;5095170;28;20237;-81
2022/08/20 09:16:15;;;;;;;0.00;0.00;;;21.40;99.90;;;;;;5095004;28;20483;-81
2022/08/20 09:18:41;;;;;;;0.00;0.00;;;21.40;99.90;;;;;;5077556;28;20055;-81
2022/08/20 09:21:08;;;;;;;0.00;0.00;;;21.40;99.90;;;;;;5077926;28;20189;-81
2022/08/20 09:23:34;;;;;;;5.38;0.98;;;21.50;99.90;;;;;;5095157;28;20067;-81
2022/08/20 09:26:00;;;;;;;0.10;0.10;;;21.60;99.90;;;;;;5094730;28;20483;-81
2022/08/20 09:28:25;;;;;;;0.00;0.00;;;21.70;99.90;;;;;;5094605;28;20040;-81
2022/08/20 09:30:51;;;;;;;0.35;0.20;;;21.80;99.90;;;;;;5094573;28;20036;-81
2022/08/20 09:33:17;;;;;;;0.00;0.00;;;22.00;99.90;;;;;;5077336;28;20143;-81
2022/08/20 09:35:45;;;;;;;0.00;0.00;;;22.10;99.90;;;;;;5077734;28;20049;-82
2022/08/20 09:38:11;;;;;;;0.00;0.00;;;22.20;99.90;;;;;;5094817;28;20044;-81
2022/08/20 09:40:36;;;;;;;0.00;0.00;;;22.20;99.90;;;;;;5077365;28;20143;-81
2022/08/20 09:43:05;;;;;;;0.00;0.00;;;22.20;99.90;;;;;;5077901;28;20105;-82
2022/08/20 09:45:30;;;;;;;0.00;0.00;;;22.40;99.90;;;;;;5077558;28;20090;-82
2022/08/20 09:47:56;;;;;;;0.00;0.00;;;22.40;99.90;;;;;;5077306;28;20059;-82
2022/08/20 09:50:23;;;;;;;0.00;0.00;;;22.50;99.90;;;;;;5077642;28;20055;-82
2022/08/20 09:52:51;;;;;;;0.00;0.00;;;22.60;99.90;;;;;;5094723;28;20446;-82
2022/08/20 09:55:39;;;;;;;0.45;0.30;;;22.70;99.90;;;;;;5093697;28;20092;-82
2022/08/20 09:58:19;;;;;;;0.00;0.00;;;22.70;99.90;;;;;;5077036;28;20054;-82
2022/08/20 10:00:45;;;;;;;0.00;0.00;;;22.70;96.00;;;;;;5077240;28;20047;-82
2022/08/20 10:03:11;;;;;;;0.00;0.00;;;22.80;98.20;;;;;;5094025;28;20044;-82
2022/08/20 10:05:36;;;;;;;0.00;0.00;;;22.80;99.20;;;;;;5076666;28;20114;-82
2022/08/20 10:08:09;;;;;;;0.00;0.00;;;22.90;98.60;;;;;;5076537;28;20052;-83
2022/08/20 10:10:35;;;;;;;0.00;0.00;;;22.90;99.90;;;;;;5093755;28;20040;-83
2022/08/20 10:13:01;;;;;;;0.00;0.00;;;23.10;97.80;;;;;;5076532;28;20047;-82
2022/08/20 10:15:28;;;;;;;0.00;0.00;;;23.10;99.70;;;;;;5076869;28;20052;-82
2022/08/20 10:17:55;;;;;;;0.00;0.00;;;23.30;98.90;;;;;;5093849;28;20127;-82
2022/08/20 10:20:22;;;;;;;0.10;0.03;;;23.40;96.20;;;;;;5076729;28;20059;-82
2022/08/20 10:22:48;;;;;;;0.00;0.00;;;23.40;96.00;;;;;;5093471;28;20043;-82
2022/08/20 10:25:16;;;;;;;0.00;0.00;;;23.50;99.30;;;;;;5093244;28;20044;-82
2022/08/20 10:27:42;;;;;;;0.00;0.00;;;23.40;98.40;;;;;;5076101;28;20391;-82
2022/08/20 10:30:08;;;;;;;15.40;0.70;;;23.40;96.30;;;;;;5076423;28;20044;-83
2022/08/20 10:32:34;;;;;;;0.00;0.00;;;23.50;96.50;;;;;;5075685;28;20418;-82
2022/08/20 10:35:00;;;;;;;0.00;0.00;;;23.60;97.70;;;;;;5076637;28;20051;-83
2022/08/20 10:37:26;;;;;;;0.00;0.00;;;23.70;94.40;;;;;;5076479;28;20079;-82
2022/08/20 10:39:53;;;;;;;0.00;0.00;;;23.50;96.50;;;;;;5093197;28;20506;-82
2022/08/20 10:42:18;;;;;;;0.00;0.00;;;23.40;96.70;;;;;;5098182;28;20048;-82
2022/08/20 10:44:44;;;;;;;0.00;0.00;;;23.30;94.70;;;;;;5075908;28;20097;-82
2022/08/20 10:47:13;;;;;;;0.00;0.00;;;23.40;92.50;;;;;;5093294;28;20044;-83
2022/08/20 10:49:40;;;;;;;0.03;0.00;;;23.60;95.10;;;;;;5076558;28;20044;-83
2022/08/20 10:52:06;;;;;;;0.00;0.00;;;23.70;94.60;;;;;;5076316;28;20054;-83
2022/08/20 10:54:32;;;;;;;0.00;0.00;;;24.00;95.80;;;;;;5075536;28;20056;-83
2022/08/20 10:57:03;;;;;;;0.00;0.00;;;24.20;96.00;;;;;;5093390;28;20056;-83
2022/08/20 10:59:30;;;;;;;0.00;0.00;;;24.60;93.90;;;;;;5093261;28;20051;-83
2022/08/20 11:01:55;;;;;;;25.20;0.45;;;24.80;95.70;;;;;;5075487;28;20491;-83
2022/08/20 11:04:21;;;;;;;0.00;0.00;;;25.20;95.60;;;;;;5092988;28;20088;-82
2022/08/20 11:06:47;;;;;;;6.05;1.17;;;25.30;92.40;;;;;;5075573;28;20151;-83
2022/08/20 11:09:13;;;;;;;0.00;0.00;;;25.10;90.20;;;;;;5092878;28;20061;-83
2022/08/20 11:11:38;;;;;;;0.00;0.00;;;24.80;88.40;;;;;;5076045;28;20174;-81
2022/08/20 11:14:04;;;;;;;0.00;0.00;;;24.50;91.50;;;;;;5092884;28;20043;-81
2022/08/20 11:16:30;;;;;;;0.00;0.00;;;24.30;92.20;;;;;;5093046;28;20101;-81
2022/08/20 11:18:55;;;;;;;0.00;0.00;;;24.40;93.30;;;;;;5093252;28;20490;-81
2022/08/20 11:21:21;;;;;;;0.00;0.00;;;24.80;96.20;;;;;;5092749;28;20399;-82
2022/08/20 11:23:47;;;;;;;0.00;0.00;;;25.10;91.50;;;;;;5076252;28;20051;-83
2022/08/20 11:26:23;;;;;;;0.00;0.00;;;25.40;91.60;;;;;;5076421;28;20047;-83
2022/08/20 11:28:49;;;;;;;0.00;0.00;;;25.50;92.80;;;;;;5076204;28;20395;-83
2022/08/20 11:31:15;;;;;;;0.00;0.00;;;25.40;90.60;;;;;;5075171;28;20052;-83
2022/08/20 11:33:41;;;;;;;0.00;0.00;;;25.20;90.50;;;;;;5092841;28;20441;-83
2022/08/20 11:36:07;;;;;;;0.00;0.00;;;25.00;91.40;;;;;;5075035;28;20048;-83
2022/08/20 11:38:32;;;;;;;0.05;0.00;;;24.80;89.20;;;;;;5075541;28;20097;-83
2022/08/20 11:40:58;;;;;;;0.17;0.08;;;25.00;90.50;;;;;;5092522;28;20043;-84
2022/08/20 11:43:23;;;;;;;0.00;0.00;;;25.20;88.30;;;;;;5095405;28;20044;-84
2022/08/20 11:45:53;;;;;;;0.10;0.10;;;25.40;87.90;;;;;;5097077;28;20051;-84
2022/08/20 11:48:19;;;;;;;0.00;0.00;;;25.60;85.20;;;;;;5096717;28;20047;-83
2022/08/20 11:50:45;;;;;;;0.10;0.10;;;25.80;82.00;;;;;;5096292;28;20044;-83
2022/08/20 11:53:11;;;;;;;0.00;0.00;;;26.00;85.80;;;;;;5079956;28;20040;-83
2022/08/20 11:55:37;;;;;;;0.00;0.00;;;26.30;89.40;;;;;;5096259;28;20135;-83
2022/08/20 11:58:03;;;;;;;0.00;0.00;;;26.50;84.00;;;;;;5079616;28;20059;-83
2022/08/20 12:00:30;;;;;;;0.00;0.00;;;26.60;82.30;;;;;;5096221;28;20052;-83
2022/08/20 12:02:56;;;;;;;0.00;0.00;;;26.60;79.90;;;;;;5095492;28;20040;-83
2022/08/20 12:05:22;;;;;;;0.00;0.00;;;26.80;83.90;;;;;;5096181;28;20436;-83
2022/08/20 12:07:48;;;;;;;0.00;0.00;;;26.80;78.00;;;;;;5079249;28;20519;-83
2022/08/20 12:10:14;;;;;;;0.00;0.00;;;26.80;81.50;;;;;;5079391;28;20505;-84
2022/08/20 12:12:40;;;;;;;0.10;0.00;;;26.70;77.00;;;;;;5096155;28;20048;-83
2022/08/20 12:15:09;;;;;;;0.00;0.00;;;26.50;75.10;;;;;;5079332;28;20094;-83
2022/08/20 12:17:35;;;;;;;0.10;0.10;;;26.20;76.50;;;;;;5079087;28;20040;-83
2022/08/20 12:20:07;;;;;;;0.00;0.00;;;26.20;79.20;;;;;;5078775;28;20087;-83
2022/08/20 12:22:32;;;;;;;0.00;0.00;;;26.30;77.90;;;;;;5095869;28;20484;-83
2022/08/20 12:24:58;;;;;;;0.05;0.00;;;26.20;77.90;;;;;;5079052;28;20047;-83
2022/08/20 12:27:28;;;;;;;0.00;0.00;;;26.20;75.40;;;;;;5095709;28;20119;-83
2022/08/20 12:29:56;;;;;;;0.00;0.00;;;26.10;77.30;;;;;;5079095;28;20044;-83
2022/08/20 12:32:24;;;;;;;0.00;0.00;;;25.80;79.50;;;;;;5078539;28;20472;-83
2022/08/20 12:34:50;;;;;;;0.00;0.00;;;25.40;79.40;;;;;;5078746;28;20044;-83
2022/08/20 12:37:18;;;;;;;0.00;0.00;;;25.00;75.30;;;;;;5079241;28;20181;-83
2022/08/20 12:39:47;;;;;;;0.00;0.00;;;25.10;79.20;;;;;;5095749;28;20048;-83
2022/08/20 12:42:14;;;;;;;0.08;0.08;;;25.10;76.80;;;;;;5078462;28;20040;-83
2022/08/20 12:44:41;;;;;;;0.00;0.00;;;25.20;78.70;;;;;;5078605;28;20058;-83
2022/08/20 12:47:12;;;;;;;0.75;0.35;;;25.40;84.30;;;;;;5078955;28;20040;-83
2022/08/20 12:49:40;;;;;;;0.00;0.00;;;25.80;76.60;;;;;;5078428;28;20060;-83
2022/08/20 12:52:06;;;;;;;0.00;0.00;;;25.90;78.20;;;;;;5078552;28;20044;-82
2022/08/20 12:54:31;;;;;;;0.00;0.00;;;25.70;75.50;;;;;;5094540;28;20043;-82
2022/08/20 12:56:57;;;;;;;0.00;0.00;;;25.80;72.50;;;;;;5094791;28;20177;-82